ADS weather

Addison Airport
Dallas, Texas, United States

Public forecast

Using degrees Fahrenheit for public forecast. Weather courtesy of forecast.io.

Current aviation weather report (METAR) for Addison Airport

Retrieved 2019/11/17 23:47 UTC (44 minutes ago):

KADS 172347Z 35007KT 10SM SKC 15/05 A3000

Closest aviation forecast (TAF) to Addison Airport

Closest forecast is Dallas Love Field, 7.3 nm (13.6 km) S. Retrieved 2019-11-18 00:22 UTC (9 minutes ago):

TAF KDAL 172320Z 1800/1824 32008KT P6SM FEW300 FM181400 27005KT P6SM FEW250